UAL1582 KBOS-KMIA
Flight info
| Callsign | UAL1582 |
|---|---|
| Flight time | N/A |
| Altitude | 36000 |
| Route | KBOS/33L SSOXS7 SSOXS Q167 RIFLE DCT HEADI Q97 KALDA Q101 SKARP Y313 HOAGG BNFSH3 KMIA/GLRIA I12 |
| Aircraft | B38M/M-SDE1FGHILORVWXY/HB1 |
Departure
| Time | 2026-05-07 21:23 |
|---|---|
| Airport | Boston Logan International Airport (KBOS) |
Arrival
| Time | N/A |
|---|---|
| Airport | Miami International Airport (KMIA) |
| Time | Latitude | Longitude | Altitude | Speed | Heading |
|---|---|---|---|---|---|
| 2026-05-07 21:02 | 42.36543 | -71.01405 | 28 ft | 0 kts | 324° |
| 2026-05-07 21:13 | 42.36541 | -71.01404 | 28 ft | 2 kts | 324° |
| 2026-05-07 21:13 | 42.36521 | -71.01381 | 28 ft | 4 kts | 309° |
| 2026-05-07 21:13 | 42.36511 | -71.01352 | 28 ft | 4 kts | 265° |
| 2026-05-07 21:13 | 42.36517 | -71.01336 | 28 ft | 0 kts | 206° |
| 2026-05-07 21:17 | 42.36508 | -71.01341 | 28 ft | 4 kts | 204° |
| 2026-05-07 21:17 | 42.36448 | -71.01376 | 28 ft | 13 kts | 202° |
| 2026-05-07 21:18 | 42.36373 | -71.01387 | 28 ft | 10 kts | 142° |
| 2026-05-07 21:18 | 42.36329 | -71.01300 | 28 ft | 12 kts | 121° |
| 2026-05-07 21:18 | 42.36282 | -71.01195 | 28 ft | 14 kts | 121° |
| 2026-05-07 21:18 | 42.36236 | -71.01073 | 28 ft | 15 kts | 114° |
| 2026-05-07 21:19 | 42.36187 | -71.00921 | 28 ft | 21 kts | 114° |
| 2026-05-07 21:19 | 42.36123 | -71.00731 | 29 ft | 22 kts | 114° |
| 2026-05-07 21:19 | 42.36089 | -71.00596 | 28 ft | 24 kts | 109° |
| 2026-05-07 21:19 | 42.36033 | -71.00380 | 28 ft | 25 kts | 108° |
| 2026-05-07 21:20 | 42.35977 | -71.00152 | 28 ft | 26 kts | 113° |
| 2026-05-07 21:20 | 42.35879 | -70.99986 | 28 ft | 23 kts | 137° |
| 2026-05-07 21:20 | 42.35761 | -70.99831 | 28 ft | 24 kts | 135° |
| 2026-05-07 21:20 | 42.35640 | -70.99664 | 28 ft | 26 kts | 134° |
| 2026-05-07 21:21 | 42.35518 | -70.99496 | 28 ft | 24 kts | 136° |
| 2026-05-07 21:21 | 42.35521 | -70.99297 | 28 ft | 21 kts | 41° |
| 2026-05-07 21:21 | 42.35568 | -70.99305 | 28 ft | 0 kts | 317° |
| 2026-05-07 21:22 | 42.35575 | -70.99316 | 28 ft | 8 kts | 316° |
| 2026-05-07 21:22 | 42.35756 | -70.99560 | 28 ft | 77 kts | 316° |
| 2026-05-07 21:23 | 42.36327 | -71.00321 | 27 ft | 149 kts | 315° |
| 2026-05-07 21:23 | 42.37126 | -71.01475 | 402 ft | 184 kts | 315° |
| 2026-05-07 21:23 | 42.38053 | -71.02670 | 1471 ft | 179 kts | 313° |
| 2026-05-07 21:23 | 42.38853 | -71.04029 | 2317 ft | 192 kts | 306° |
| 2026-05-07 21:24 | 42.39589 | -71.05632 | 3064 ft | 209 kts | 301° |
| 2026-05-07 21:24 | 42.40309 | -71.07419 | 3868 ft | 224 kts | 298° |
| 2026-05-07 21:24 | 42.40976 | -71.09392 | 4787 ft | 230 kts | 290° |
| 2026-05-07 21:24 | 42.41162 | -71.11542 | 5781 ft | 233 kts | 264° |
| 2026-05-07 21:25 | 42.40572 | -71.13606 | 6724 ft | 241 kts | 242° |
| 2026-05-07 21:25 | 42.39577 | -71.15447 | 7659 ft | 247 kts | 236° |
| 2026-05-07 21:25 | 42.38260 | -71.17086 | 8282 ft | 269 kts | 221° |
| 2026-05-07 21:25 | 42.36858 | -71.18699 | 9313 ft | 259 kts | 239° |
| 2026-05-07 21:26 | 42.35832 | -71.20716 | 10181 ft | 263 kts | 242° |
| 2026-05-07 21:26 | 42.34539 | -71.22613 | 10608 ft | 293 kts | 222° |
| 2026-05-07 21:26 | 42.32519 | -71.23631 | 10875 ft | 333 kts | 194° |
| 2026-05-07 21:26 | 42.30116 | -71.23237 | 11320 ft | 366 kts | 169° |
| 2026-05-07 21:27 | 42.27805 | -71.21576 | 11932 ft | 388 kts | 150° |
| 2026-05-07 21:27 | 42.25763 | -71.19168 | 12858 ft | 391 kts | 147° |
| 2026-05-07 21:27 | 42.23906 | -71.16383 | 13540 ft | 407 kts | 134° |
| 2026-05-07 21:27 | 42.22169 | -71.13406 | 14306 ft | 403 kts | 141° |
| 2026-05-07 21:28 | 42.20268 | -71.10605 | 14901 ft | 405 kts | 144° |
| 2026-05-07 21:28 | 42.18269 | -71.07927 | 15567 ft | 405 kts | 147° |
| 2026-05-07 21:28 | 42.16226 | -71.05364 | 16190 ft | 407 kts | 149° |
| 2026-05-07 21:28 | 42.14003 | -71.03123 | 16866 ft | 396 kts | 160° |
| 2026-05-07 21:29 | 42.11690 | -71.01016 | 17384 ft | 406 kts | 156° |
| 2026-05-07 21:29 | 42.09396 | -70.98787 | 18070 ft | 407 kts | 156° |
| 2026-05-07 21:29 | 42.07075 | -70.96566 | 18556 ft | 411 kts | 157° |
| 2026-05-07 21:29 | 42.04736 | -70.94348 | 19100 ft | 412 kts | 158° |
| 2026-05-07 21:30 | 42.02378 | -70.92127 | 19617 ft | 415 kts | 158° |
| 2026-05-07 21:30 | 42.00007 | -70.89900 | 20133 ft | 417 kts | 159° |
| 2026-05-07 21:30 | 41.97620 | -70.87658 | 20632 ft | 420 kts | 159° |
| 2026-05-07 21:30 | 41.95215 | -70.85401 | 21150 ft | 422 kts | 160° |
| 2026-05-07 21:31 | 41.92800 | -70.83137 | 21663 ft | 424 kts | 160° |
| 2026-05-07 21:31 | 41.90375 | -70.80865 | 22195 ft | 426 kts | 161° |
| 2026-05-07 21:31 | 41.87863 | -70.78970 | 22748 ft | 401 kts | 175° |
| 2026-05-07 21:31 | 41.85243 | -70.78138 | 23152 ft | 377 kts | 191° |
| 2026-05-07 21:32 | 41.82691 | -70.78283 | 23469 ft | 361 kts | 202° |
| 2026-05-07 21:32 | 41.80230 | -70.78980 | 23664 ft | 361 kts | 208° |
| 2026-05-07 21:32 | 41.77888 | -70.80141 | 23916 ft | 360 kts | 212° |
| 2026-05-07 21:32 | 41.75572 | -70.81416 | 24312 ft | 359 kts | 214° |
| 2026-05-07 21:33 | 41.73304 | -70.82827 | 24646 ft | 360 kts | 216° |
| 2026-05-07 21:33 | 41.71066 | -70.84338 | 24980 ft | 361 kts | 217° |
| 2026-05-07 21:33 | 41.68840 | -70.85913 | 25328 ft | 362 kts | 217° |
| 2026-05-07 21:33 | 41.66621 | -70.87524 | 25673 ft | 364 kts | 217° |
| 2026-05-07 21:34 | 41.64400 | -70.89158 | 26015 ft | 365 kts | 218° |
| 2026-05-07 21:34 | 41.62172 | -70.90811 | 26361 ft | 367 kts | 218° |
| 2026-05-07 21:34 | 41.59937 | -70.92477 | 26695 ft | 369 kts | 218° |
| 2026-05-07 21:34 | 41.57698 | -70.94147 | 27127 ft | 367 kts | 218° |
| 2026-05-07 21:35 | 41.55589 | -70.95980 | 27695 ft | 354 kts | 230° |
| 2026-05-07 21:35 | 41.54234 | -70.98650 | 28295 ft | 349 kts | 245° |
| 2026-05-07 21:35 | 41.53427 | -71.01725 | 28643 ft | 353 kts | 251° |
| 2026-05-07 21:35 | 41.52734 | -71.04878 | 29036 ft | 352 kts | 249° |
| 2026-05-07 21:36 | 41.51751 | -71.07845 | 29431 ft | 348 kts | 239° |
| 2026-05-07 21:36 | 41.50209 | -71.10321 | 29841 ft | 350 kts | 225° |
| 2026-05-07 21:36 | 41.48252 | -71.12245 | 30313 ft | 346 kts | 225° |
| 2026-05-07 21:36 | 41.46604 | -71.14506 | 30785 ft | 338 kts | 236° |
| 2026-05-07 21:37 | 41.45342 | -71.17154 | 31088 ft | 339 kts | 242° |
| 2026-05-07 21:37 | 41.44214 | -71.19913 | 31389 ft | 339 kts | 241° |
| 2026-05-07 21:37 | 41.42950 | -71.22570 | 31688 ft | 339 kts | 236° |
| 2026-05-07 21:37 | 41.41375 | -71.24916 | 32037 ft | 339 kts | 231° |
| 2026-05-07 21:38 | 41.39824 | -71.27200 | 32447 ft | 336 kts | 234° |
| 2026-05-07 21:38 | 41.38349 | -71.29600 | 32768 ft | 335 kts | 236° |
| 2026-05-07 21:38 | 41.36943 | -71.32072 | 33105 ft | 334 kts | 237° |
| 2026-05-07 21:38 | 41.35588 | -71.34575 | 33448 ft | 333 kts | 238° |
| 2026-05-07 21:39 | 41.34264 | -71.37096 | 33789 ft | 331 kts | 238° |
| 2026-05-07 21:39 | 41.32957 | -71.39622 | 34062 ft | 331 kts | 238° |
| 2026-05-07 21:39 | 41.31659 | -71.42157 | 34296 ft | 331 kts | 239° |
| 2026-05-07 21:39 | 41.30364 | -71.44700 | 34535 ft | 331 kts | 239° |
| 2026-05-07 21:40 | 41.29074 | -71.47243 | 34773 ft | 331 kts | 239° |
| 2026-05-07 21:40 | 41.27786 | -71.49784 | 34992 ft | 332 kts | 239° |
| 2026-05-07 21:40 | 41.26497 | -71.52325 | 35210 ft | 332 kts | 239° |
| 2026-05-07 21:40 | 41.25203 | -71.54874 | 35426 ft | 332 kts | 239° |
| 2026-05-07 21:41 | 41.23910 | -71.57419 | 35638 ft | 332 kts | 239° |
| 2026-05-07 21:41 | 41.22617 | -71.59963 | 35791 ft | 333 kts | 239° |
| 2026-05-07 21:41 | 41.20023 | -71.65059 | 35816 ft | 332 kts | 239° |
| 2026-05-07 21:42 | 41.17451 | -71.70103 | 35821 ft | 332 kts | 239° |
| 2026-05-07 21:42 | 41.14857 | -71.75181 | 35819 ft | 333 kts | 239° |
| 2026-05-07 21:43 | 41.12271 | -71.80278 | 35830 ft | 333 kts | 239° |
| 2026-05-07 21:43 | 41.09680 | -71.85367 | 35829 ft | 333 kts | 239° |
| 2026-05-07 21:44 | 41.07083 | -71.90460 | 35832 ft | 333 kts | 239° |
| 2026-05-07 21:44 | 41.04482 | -71.95556 | 35830 ft | 334 kts | 239° |
| 2026-05-07 21:45 | 41.02818 | -72.01200 | 35825 ft | 338 kts | 262° |
| 2026-05-07 21:45 | 41.02920 | -72.04361 | 35825 ft | 351 kts | 271° |
| 2026-05-07 21:45 | 41.03482 | -72.07565 | 35828 ft | 363 kts | 278° |
| 2026-05-07 21:46 | 41.05428 | -72.13888 | 35834 ft | 377 kts | 284° |
| 2026-05-07 21:46 | 41.07756 | -72.20154 | 35835 ft | 379 kts | 285° |
| 2026-05-07 21:47 | 41.09809 | -72.26514 | 35830 ft | 371 kts | 279° |
| 2026-05-07 21:47 | 41.10980 | -72.33042 | 35831 ft | 357 kts | 269° |
| 2026-05-07 21:48 | 41.10805 | -72.39473 | 35834 ft | 345 kts | 256° |
| 2026-05-07 21:48 | 41.09734 | -72.45666 | 35827 ft | 343 kts | 252° |
| 2026-05-07 21:49 | 41.08024 | -72.51550 | 35829 ft | 343 kts | 248° |
| 2026-05-07 21:49 | 41.06393 | -72.57481 | 35843 ft | 343 kts | 251° |